createdAt,value
2023-04-16T00:00:00.098Z,38.05
2023-04-16T00:01:00.100Z,38.02
2023-04-16T00:02:00.218Z,38.04
2023-04-16T00:03:00.349Z,38.04
2023-04-16T00:04:00.548Z,38.02
2023-04-16T00:05:00.350Z,38.03
2023-04-16T00:06:00.327Z,38.04
2023-04-16T00:07:00.348Z,38.07
2023-04-16T00:08:00.386Z,38.05
2023-04-16T00:09:00.437Z,38.03
2023-04-16T00:10:00.476Z,38.06
2023-04-16T00:11:00.527Z,38.04
2023-04-16T00:12:00.565Z,38.05
2023-04-16T00:13:00.627Z,38.04
2023-04-16T00:14:00.678Z,38.07
2023-04-16T00:15:00.846Z,38.05
2023-04-16T00:16:00.776Z,38.07
2023-04-16T00:17:00.876Z,38.04
2023-04-16T00:18:00.922Z,38.05
2023-04-16T00:19:00.942Z,38.05
2023-04-16T00:20:00.963Z,38.03
2023-04-16T00:21:01.031Z,38.03
2023-04-16T00:22:01.051Z,38.04
2023-04-16T00:23:01.095Z,38.03
2023-04-16T00:24:01.143Z,38.04
2023-04-16T00:25:01.209Z,38.05
2023-04-16T00:26:01.259Z,38.05
2023-04-16T00:27:01.368Z,38.05
2023-04-16T00:28:01.364Z,38.05
2023-04-16T00:29:01.411Z,38.05
2023-04-16T00:30:01.456Z,38.04
2023-04-16T00:31:01.586Z,38.04
2023-04-16T00:32:01.551Z,38.06
2023-04-16T00:33:01.681Z,38.03
2023-04-16T00:34:01.643Z,38.04
2023-04-16T00:35:01.685Z,38.05
2023-04-16T00:36:01.771Z,38.03
2023-04-16T00:37:01.822Z,38.04
2023-04-16T00:38:01.852Z,38.05
2023-04-16T00:39:01.969Z,38.05
2023-04-16T00:40:01.948Z,38.02
2023-04-16T00:41:02.019Z,38.05
2023-04-16T00:42:02.057Z,38.04
2023-04-16T00:43:02.099Z,38.02
2023-04-16T00:44:02.159Z,38.05
2023-04-16T00:45:02.211Z,38.06
2023-04-16T00:46:03.219Z,38.03
2023-04-16T00:47:02.289Z,38.05
2023-04-16T00:48:02.412Z,38.04
2023-04-16T00:49:02.391Z,38.03
2023-04-16T00:50:02.507Z,38.04
2023-04-16T00:51:02.477Z,38.06
2023-04-16T00:52:02.600Z,38.04
2023-04-16T00:53:02.670Z,38.03
2023-04-16T00:54:02.693Z,38.02
2023-04-16T00:55:02.700Z,38.05
2023-04-16T00:56:02.683Z,38.05
2023-04-16T00:57:02.730Z,38.03
2023-04-16T00:58:02.802Z,38.03
2023-04-16T00:59:02.861Z,38.04
2023-04-16T01:00:02.918Z,38.04
2023-04-16T01:01:02.970Z,38.05
2023-04-16T01:02:03.080Z,38.03
2023-04-16T01:03:03.222Z,38.05
2023-04-16T01:04:03.109Z,38.04
2023-04-16T01:05:03.139Z,38.04
2023-04-16T01:06:03.150Z,38.03
2023-04-16T01:07:03.177Z,38.02
2023-04-16T01:08:03.246Z,38.05
2023-04-16T01:09:03.283Z,38.02
2023-04-16T01:10:03.338Z,38.04
2023-04-16T01:11:03.375Z,38.03
2023-04-16T01:12:03.404Z,38.00
2023-04-16T01:13:03.462Z,38.06
2023-04-16T01:14:03.503Z,38.03
2023-04-16T01:15:04.228Z,38.03
2023-04-16T01:16:03.647Z,38.02
2023-04-16T01:17:03.642Z,38.01
2023-04-16T01:18:03.771Z,38.02
2023-04-16T01:19:03.715Z,38.02
2023-04-16T01:20:03.778Z,38.04
2023-04-16T01:21:03.791Z,38.03
2023-04-16T01:22:03.844Z,38.04
2023-04-16T01:23:03.898Z,38.05
2023-04-16T01:24:03.930Z,38.03
2023-04-16T01:25:03.986Z,38.04
2023-04-16T01:26:04.042Z,38.01
2023-04-16T01:27:04.059Z,38.01
2023-04-16T01:28:04.115Z,38.02
2023-04-16T01:29:04.172Z,38.03
2023-04-16T01:30:04.207Z,38.03
2023-04-16T01:31:04.287Z,37.99
2023-04-16T01:32:04.290Z,38.04
2023-04-16T01:33:04.318Z,38.05
2023-04-16T01:34:04.333Z,38.05
2023-04-16T01:35:04.373Z,38.04
2023-04-16T01:36:04.401Z,38.03
2023-04-16T01:37:04.462Z,38.01
2023-04-16T01:38:04.497Z,38.04
2023-04-16T01:39:04.552Z,38.04
2023-04-16T01:40:04.694Z,38.04
2023-04-16T01:41:04.667Z,38.05
2023-04-16T01:42:04.722Z,38.04
2023-04-16T01:43:04.777Z,38.05
2023-04-16T01:44:04.928Z,38.05
2023-04-16T01:45:04.866Z,38.05
2023-04-16T01:46:04.918Z,38.04
2023-04-16T01:47:05.012Z,38.05
2023-04-16T01:48:05.045Z,38.02
2023-04-16T01:49:05.073Z,38.03
2023-04-16T01:50:05.110Z,38.04
2023-04-16T01:51:05.143Z,38.02
2023-04-16T01:52:05.153Z,38.05
2023-04-16T01:53:05.275Z,38.05
2023-04-16T01:54:05.233Z,38.03
2023-04-16T01:55:05.290Z,38.01
2023-04-16T01:56:05.319Z,38.04
2023-04-16T01:57:05.401Z,38.03
2023-04-16T01:58:05.419Z,38.02
2023-04-16T01:59:05.566Z,38.05
2023-04-16T02:00:05.536Z,38.03
2023-04-16T02:01:05.595Z,38.00
2023-04-16T02:02:05.683Z,38.05
2023-04-16T02:03:05.799Z,38.05
2023-04-16T02:04:05.698Z,38.05
2023-04-16T02:05:05.696Z,38.03
2023-04-16T02:06:05.713Z,38.04
2023-04-16T02:07:05.782Z,38.04
2023-04-16T02:08:05.807Z,38.04
2023-04-16T02:09:05.843Z,38.03
2023-04-16T02:10:05.850Z,38.03
2023-04-16T02:11:05.908Z,38.04
2023-04-16T02:12:05.884Z,38.02
2023-04-16T02:13:05.917Z,38.05
2023-04-16T02:14:05.911Z,38.05
2023-04-16T02:15:06.003Z,38.06
2023-04-16T02:16:06.046Z,38.05
2023-04-16T02:17:06.056Z,38.04
2023-04-16T02:18:06.132Z,38.03
2023-04-16T02:19:06.169Z,38.03
2023-04-16T02:20:06.200Z,38.02
2023-04-16T02:21:06.193Z,38.04
2023-04-16T02:22:06.221Z,38.03
2023-04-16T02:23:06.265Z,38.04
2023-04-16T02:24:06.253Z,38.05
2023-04-16T02:25:06.295Z,38.03
2023-04-16T02:26:06.334Z,38.04
2023-04-16T02:27:06.359Z,38.03
2023-04-16T02:28:06.371Z,38.03
2023-04-16T02:29:06.419Z,38.04
2023-04-16T02:30:06.413Z,38.03
2023-04-16T02:31:06.446Z,38.03
2023-04-16T02:32:06.521Z,38.05
2023-04-16T02:33:06.540Z,38.02
2023-04-16T02:34:06.496Z,38.03
2023-04-16T02:35:06.539Z,38.05
2023-04-16T02:36:06.519Z,38.03
2023-04-16T02:37:06.530Z,38.04
2023-04-16T02:38:06.536Z,38.03
2023-04-16T02:39:06.606Z,38.02
2023-04-16T02:40:06.547Z,38.04
2023-04-16T02:41:06.565Z,38.03
2023-04-16T02:42:06.591Z,38.03
2023-04-16T02:43:06.641Z,38.05
2023-04-16T02:44:06.681Z,38.03
2023-04-16T02:45:06.738Z,38.03
2023-04-16T02:46:06.823Z,38.05
2023-04-16T02:47:06.833Z,38.04
2023-04-16T02:48:06.884Z,38.01
2023-04-16T02:49:07.013Z,38.08
2023-04-16T02:50:06.943Z,38.05
2023-04-16T02:51:07.009Z,38.06
2023-04-16T02:52:07.024Z,38.03
2023-04-16T02:53:07.079Z,38.04
2023-04-16T02:54:07.119Z,38.05
2023-04-16T02:55:07.170Z,38.04
2023-04-16T02:56:07.222Z,38.06
2023-04-16T02:57:07.289Z,38.03
2023-04-16T02:58:07.334Z,38.05
2023-04-16T02:59:07.498Z,38.04
2023-04-16T03:00:07.420Z,38.03
2023-04-16T03:01:07.487Z,38.05
2023-04-16T03:02:07.694Z,38.05
2023-04-16T03:03:07.643Z,38.04
2023-04-16T03:04:07.737Z,38.05
2023-04-16T03:05:07.670Z,38.04
2023-04-16T03:06:07.720Z,38.04
2023-04-16T03:07:07.755Z,38.04
2023-04-16T03:08:07.838Z,38.03
2023-04-16T03:09:08.153Z,38.05
2023-04-16T03:10:07.890Z,38.05
2023-04-16T03:11:07.946Z,38.03
2023-04-16T03:12:07.999Z,38.05
2023-04-16T03:13:08.049Z,38.02
2023-04-16T03:14:08.092Z,38.02
2023-04-16T03:15:08.149Z,38.06
2023-04-16T03:16:08.281Z,38.04
2023-04-16T03:17:08.232Z,38.05
2023-04-16T03:18:08.290Z,38.05
2023-04-16T03:19:08.595Z,38.03
2023-04-16T03:20:08.313Z,38.02
2023-04-16T03:21:08.348Z,38.03
2023-04-16T03:22:08.399Z,38.05
2023-04-16T03:23:08.430Z,38.01
2023-04-16T03:24:08.446Z,38.01
2023-04-16T03:25:08.500Z,38.04
2023-04-16T03:26:08.541Z,38.03
2023-04-16T03:27:08.564Z,38.01
2023-04-16T03:28:08.624Z,38.06
2023-04-16T03:29:08.899Z,38.04
2023-04-16T03:30:08.736Z,38.04
2023-04-16T03:31:08.856Z,38.05
2023-04-16T03:32:08.842Z,38.04
2023-04-16T03:33:08.959Z,38.04
2023-04-16T03:34:08.937Z,38.04
2023-04-16T03:35:09.037Z,38.04
2023-04-16T03:36:09.014Z,38.03
2023-04-16T03:37:09.056Z,38.03
2023-04-16T03:38:09.055Z,38.03
2023-04-16T03:39:09.209Z,38.02
2023-04-16T03:40:09.116Z,38.05
2023-04-16T03:41:09.165Z,38.03
2023-04-16T03:42:09.196Z,38.02
2023-04-16T03:43:09.249Z,38.02
2023-04-16T03:44:09.286Z,38.06
2023-04-16T03:45:09.345Z,38.04
2023-04-16T03:46:09.416Z,38.07
2023-04-16T03:47:09.441Z,38.04
2023-04-16T03:48:09.499Z,38.05
2023-04-16T03:49:09.757Z,38.07
2023-04-16T03:50:09.594Z,38.05
2023-04-16T03:51:09.586Z,38.05
2023-04-16T03:52:09.604Z,38.03
2023-04-16T03:53:09.638Z,38.03
2023-04-16T03:54:09.678Z,38.05
2023-04-16T03:55:09.708Z,38.06
2023-04-16T03:56:09.741Z,38.05
2023-04-16T03:57:09.751Z,38.06
2023-04-16T03:58:09.780Z,38.03
2023-04-16T03:59:09.983Z,38.05
2023-04-16T04:00:09.747Z,38.04
2023-04-16T04:01:09.718Z,38.05
2023-04-16T04:02:09.885Z,38.07
2023-04-16T04:03:09.969Z,38.06
2023-04-16T04:04:09.954Z,38.04
2023-04-16T04:05:09.868Z,38.04
2023-04-16T04:06:09.832Z,38.03
2023-04-16T04:07:09.874Z,38.02
2023-04-16T04:08:09.905Z,38.02
2023-04-16T04:09:10.092Z,38.04
2023-04-16T04:10:09.896Z,38.06
2023-04-16T04:11:09.888Z,38.04
2023-04-16T04:12:09.908Z,38.04
2023-04-16T04:13:09.881Z,38.05
2023-04-16T04:14:09.865Z,38.03
2023-04-16T04:15:09.848Z,38.06
2023-04-16T04:16:09.907Z,38.06
2023-04-16T04:17:09.836Z,38.02
2023-04-16T04:18:09.845Z,38.03
2023-04-16T04:19:10.009Z,38.05
2023-04-16T04:20:09.814Z,38.04
2023-04-16T04:21:09.788Z,38.05
2023-04-16T04:22:09.778Z,38.04
2023-04-16T04:23:09.763Z,38.05
2023-04-16T04:24:09.756Z,38.03
2023-04-16T04:25:09.753Z,38.07
2023-04-16T04:26:09.782Z,38.04
2023-04-16T04:27:09.742Z,38.06
2023-04-16T04:28:09.747Z,38.06
2023-04-16T04:29:09.976Z,38.04
2023-04-16T04:30:09.724Z,38.07
2023-04-16T04:31:09.711Z,38.05
2023-04-16T04:32:09.706Z,38.05
2023-04-16T04:33:09.700Z,38.03
2023-04-16T04:34:09.736Z,38.02
2023-04-16T04:35:09.740Z,38.04
2023-04-16T04:36:09.740Z,38.06
2023-04-16T04:37:09.769Z,38.05
2023-04-16T04:38:09.804Z,38.06
2023-04-16T04:39:10.082Z,38.06
2023-04-16T04:40:09.802Z,38.07
2023-04-16T04:41:09.813Z,38.06
2023-04-16T04:42:09.763Z,38.05
2023-04-16T04:43:09.748Z,38.06
2023-04-16T04:44:09.745Z,38.05
2023-04-16T04:45:09.740Z,38.04
2023-04-16T04:46:09.815Z,38.06
2023-04-16T04:47:09.785Z,38.05
2023-04-16T04:48:09.783Z,38.06
2023-04-16T04:49:10.072Z,38.04
2023-04-16T04:50:09.837Z,38.05
2023-04-16T04:51:09.821Z,38.05
2023-04-16T04:52:09.808Z,38.07
2023-04-16T04:53:09.809Z,38.04
2023-04-16T04:54:09.799Z,38.07
2023-04-16T04:55:09.800Z,38.05
2023-04-16T04:56:12.732Z,38.04
2023-04-16T04:57:09.776Z,38.05
2023-04-16T04:58:09.759Z,38.07
2023-04-16T04:59:09.831Z,38.07
2023-04-16T05:00:09.701Z,38.06
2023-04-16T05:01:09.773Z,38.04
2023-04-16T05:02:09.682Z,38.05
2023-04-16T05:03:09.737Z,38.06
2023-04-16T05:04:09.711Z,38.05
2023-04-16T05:05:09.626Z,38.01
2023-04-16T05:06:09.575Z,38.04
2023-04-16T05:07:09.545Z,38.03
2023-04-16T05:08:09.529Z,38.05
2023-04-16T05:09:09.617Z,38.04
2023-04-16T05:10:09.494Z,38.05
2023-04-16T05:11:09.507Z,38.04
2023-04-16T05:12:09.459Z,38.04
2023-04-16T05:13:09.427Z,38.02
2023-04-16T05:14:09.419Z,38.01
2023-04-16T05:15:09.394Z,38.04
2023-04-16T05:16:09.481Z,38.02
2023-04-16T05:17:09.334Z,38.02
2023-04-16T05:18:09.313Z,38.03
2023-04-16T05:19:09.600Z,38.02
2023-04-16T05:20:09.271Z,38.03
2023-04-16T05:21:09.231Z,38.03
2023-04-16T05:22:09.213Z,38.01
2023-04-16T05:23:09.195Z,38.02
2023-04-16T05:24:09.181Z,38.01
2023-04-16T05:25:09.159Z,38.03
2023-04-16T05:26:09.116Z,38.03
2023-04-16T05:27:09.115Z,37.99
2023-04-16T05:28:09.076Z,38.05
2023-04-16T05:29:09.234Z,38.01
2023-04-16T05:30:09.038Z,38.00
2023-04-16T05:31:09.058Z,38.00
2023-04-16T05:32:08.976Z,38.02
2023-04-16T05:33:08.953Z,38.01
2023-04-16T05:34:08.942Z,38.01
2023-04-16T05:35:08.907Z,38.01
2023-04-16T05:36:08.867Z,38.01
2023-04-16T05:37:08.848Z,38.00
2023-04-16T05:38:08.823Z,38.00
2023-04-16T05:39:09.039Z,38.01
2023-04-16T05:40:08.773Z,38.02
2023-04-16T05:41:08.747Z,38.02
2023-04-16T05:42:08.719Z,38.02
2023-04-16T05:43:08.688Z,38.03
2023-04-16T05:44:08.690Z,38.02
2023-04-16T05:45:08.651Z,38.02
2023-04-16T05:46:08.667Z,38.03
2023-04-16T05:47:08.600Z,38.01
2023-04-16T05:48:08.582Z,38.00
2023-04-16T05:49:08.818Z,38.00
2023-04-16T05:50:08.553Z,37.97
2023-04-16T05:51:08.542Z,38.02
2023-04-16T05:52:08.496Z,38.03
2023-04-16T05:53:08.473Z,38.01
2023-04-16T05:54:08.448Z,38.00
2023-04-16T05:55:08.437Z,38.00
2023-04-16T05:56:08.402Z,37.97
2023-04-16T05:57:08.392Z,37.99
2023-04-16T05:58:08.390Z,37.98
2023-04-16T05:59:08.726Z,37.96
2023-04-16T06:00:08.375Z,37.99
2023-04-16T06:01:08.302Z,37.99
2023-04-16T06:02:08.308Z,37.97
2023-04-16T06:03:08.470Z,38.01
2023-04-16T06:04:08.364Z,37.98
2023-04-16T06:05:08.239Z,37.99
2023-04-16T06:06:08.177Z,37.94
2023-04-16T06:07:08.150Z,37.97
2023-04-16T06:08:08.142Z,37.95
2023-04-16T06:09:08.428Z,37.96
2023-04-16T06:10:08.087Z,37.97
2023-04-16T06:11:08.062Z,37.96
2023-04-16T06:12:08.043Z,37.97
2023-04-16T06:13:08.019Z,37.97
2023-04-16T06:14:08.006Z,37.98
2023-04-16T06:15:07.974Z,37.98
2023-04-16T06:16:07.970Z,37.96
2023-04-16T06:17:07.912Z,37.99
2023-04-16T06:18:07.903Z,37.98
2023-04-16T06:19:07.980Z,37.98
2023-04-16T06:20:07.852Z,37.98
2023-04-16T06:21:07.819Z,37.97
2023-04-16T06:22:07.840Z,37.97
2023-04-16T06:23:07.785Z,37.96
2023-04-16T06:24:07.770Z,37.95
2023-04-16T06:25:07.748Z,37.96
2023-04-16T06:26:07.733Z,37.96
2023-04-16T06:27:07.707Z,37.97
2023-04-16T06:28:07.692Z,37.95
2023-04-16T06:29:07.871Z,37.94
2023-04-16T06:30:07.640Z,37.94
2023-04-16T06:31:07.694Z,37.96
2023-04-16T06:32:07.589Z,37.93
2023-04-16T06:33:07.549Z,37.96
2023-04-16T06:34:07.528Z,37.93
2023-04-16T06:35:07.508Z,37.94
2023-04-16T06:36:07.484Z,37.94
2023-04-16T06:37:10.362Z,37.93
2023-04-16T06:38:07.429Z,37.95
2023-04-16T06:39:07.578Z,37.93
2023-04-16T06:40:07.387Z,37.95
2023-04-16T06:41:07.353Z,37.96
2023-04-16T06:42:07.327Z,37.95
2023-04-16T06:43:07.308Z,37.94
2023-04-16T06:44:07.296Z,37.94
2023-04-16T06:45:07.295Z,37.94
2023-04-16T06:46:07.249Z,37.92
2023-04-16T06:47:07.335Z,37.94
2023-04-16T06:48:07.291Z,37.94
2023-04-16T06:49:07.314Z,37.91
2023-04-16T06:50:07.160Z,37.91
2023-04-16T06:51:07.127Z,37.94
2023-04-16T06:52:07.108Z,37.94
2023-04-16T06:53:07.087Z,37.92
2023-04-16T06:54:07.048Z,37.93
2023-04-16T06:55:07.027Z,37.91
2023-04-16T06:56:07.013Z,37.94
2023-04-16T06:57:07.150Z,37.91
2023-04-16T06:58:06.985Z,37.94
2023-04-16T06:59:07.027Z,37.93
2023-04-16T07:00:06.945Z,37.93
2023-04-16T07:01:06.984Z,37.91
2023-04-16T07:02:06.978Z,37.91
2023-04-16T07:03:07.003Z,37.90
2023-04-16T07:04:06.989Z,37.90
2023-04-16T07:05:06.841Z,37.88
2023-04-16T07:06:06.809Z,37.91
2023-04-16T07:07:06.783Z,37.90
2023-04-16T07:08:06.769Z,37.90
2023-04-16T07:09:06.813Z,37.89
2023-04-16T07:10:06.716Z,37.90
2023-04-16T07:11:06.687Z,37.92
2023-04-16T07:12:06.745Z,37.90
2023-04-16T07:13:06.646Z,37.89
2023-04-16T07:14:06.633Z,37.90
2023-04-16T07:15:06.618Z,37.92
2023-04-16T07:16:06.639Z,37.90
2023-04-16T07:17:06.555Z,37.88
2023-04-16T07:18:06.580Z,37.91
2023-04-16T07:19:06.506Z,37.92
2023-04-16T07:20:06.488Z,37.89
2023-04-16T07:21:06.459Z,37.91
2023-04-16T07:22:06.460Z,37.91
2023-04-16T07:23:06.423Z,37.90
2023-04-16T07:24:06.416Z,37.89
2023-04-16T07:25:06.381Z,37.88
2023-04-16T07:26:06.356Z,37.90
2023-04-16T07:27:06.335Z,37.88
2023-04-16T07:28:06.321Z,37.89
2023-04-16T07:29:06.296Z,37.88
2023-04-16T07:30:06.270Z,37.90
2023-04-16T07:31:06.258Z,37.89
2023-04-16T07:32:06.268Z,37.90
2023-04-16T07:33:06.221Z,37.87
2023-04-16T07:34:06.165Z,37.87
2023-04-16T07:35:06.138Z,37.89
2023-04-16T07:36:06.114Z,37.88
2023-04-16T07:37:06.083Z,37.87
2023-04-16T07:38:06.074Z,37.88
2023-04-16T07:39:06.040Z,37.86
2023-04-16T07:40:06.020Z,37.89
2023-04-16T07:41:06.006Z,37.89
2023-04-16T07:42:05.967Z,37.86
2023-04-16T07:43:05.950Z,37.87
2023-04-16T07:44:05.923Z,37.84
2023-04-16T07:45:05.917Z,37.88
2023-04-16T07:46:05.945Z,37.87
2023-04-16T07:47:06.009Z,37.85
2023-04-16T07:48:05.828Z,37.86
2023-04-16T07:49:05.817Z,37.85
2023-04-16T07:50:05.796Z,37.87
2023-04-16T07:51:05.873Z,37.85
2023-04-16T07:52:05.740Z,37.87
2023-04-16T07:53:05.729Z,37.85
2023-04-16T07:54:05.699Z,37.81
2023-04-16T07:55:05.676Z,37.82
2023-04-16T07:56:05.657Z,37.83
2023-04-16T07:57:05.627Z,37.80
2023-04-16T07:58:05.661Z,37.83
2023-04-16T07:59:21.058Z,37.82
2023-04-16T08:00:06.642Z,37.82
2023-04-16T08:01:05.623Z,37.84
2023-04-16T08:02:05.701Z,37.85
2023-04-16T08:03:05.953Z,37.83
2023-04-16T08:04:05.657Z,37.83
2023-04-16T08:05:05.590Z,37.81
2023-04-16T08:06:05.513Z,37.81
2023-04-16T08:07:05.693Z,37.82
2023-04-16T08:08:05.453Z,37.82
2023-04-16T08:09:05.448Z,37.77
2023-04-16T08:10:05.439Z,37.80
2023-04-16T08:11:05.410Z,37.79
2023-04-16T08:12:05.385Z,37.80
2023-04-16T08:13:05.400Z,37.82
2023-04-16T08:14:05.386Z,37.79
2023-04-16T08:15:05.383Z,37.81
2023-04-16T08:16:05.399Z,37.79
2023-04-16T08:17:05.365Z,37.80
2023-04-16T08:18:05.434Z,37.80
2023-04-16T08:19:05.405Z,37.79
2023-04-16T08:20:05.410Z,37.79
2023-04-16T08:21:05.405Z,37.78
2023-04-16T08:22:05.394Z,37.77
2023-04-16T08:23:05.386Z,37.78
2023-04-16T08:24:05.387Z,37.78
2023-04-16T08:25:05.394Z,37.76
2023-04-16T08:26:05.428Z,37.77
2023-04-16T08:28:06.407Z,37.78
2023-04-16T08:29:05.394Z,37.77
2023-04-16T08:30:05.355Z,37.77
2023-04-16T08:31:05.352Z,37.78
2023-04-16T08:32:05.300Z,37.78
2023-04-16T08:33:05.314Z,37.75
2023-04-16T08:34:05.255Z,37.75
2023-04-16T08:35:05.234Z,37.77
2023-04-16T08:36:05.211Z,37.75
2023-04-16T08:37:05.194Z,37.74
2023-04-16T08:38:05.153Z,37.75
2023-04-16T08:39:05.138Z,37.74
2023-04-16T08:40:05.164Z,37.72
2023-04-16T08:41:05.183Z,37.72
2023-04-16T08:42:05.203Z,37.74
2023-04-16T08:43:05.239Z,37.73
2023-04-16T08:44:05.266Z,37.73
2023-04-16T08:45:05.283Z,37.71
2023-04-16T08:46:05.337Z,37.73
2023-04-16T08:47:05.357Z,37.74
2023-04-16T08:48:05.387Z,37.72
2023-04-16T08:49:05.392Z,37.71
2023-04-16T08:50:05.421Z,37.70
2023-04-16T08:51:05.483Z,37.72
2023-04-16T08:52:05.524Z,37.68
2023-04-16T08:53:05.592Z,37.71
2023-04-16T08:54:05.628Z,37.70
2023-04-16T08:55:05.709Z,37.65
2023-04-16T08:56:05.718Z,37.66
2023-04-16T08:57:05.774Z,37.66
2023-04-16T08:58:05.795Z,37.68
2023-04-16T08:59:05.860Z,37.65
2023-04-16T09:00:05.893Z,37.65
2023-04-16T09:01:05.936Z,37.64
2023-04-16T09:02:06.021Z,37.65
2023-04-16T09:03:06.067Z,37.64
2023-04-16T09:04:06.330Z,37.62
2023-04-16T09:05:06.089Z,37.63
2023-04-16T09:06:06.168Z,37.62
2023-04-16T09:07:06.220Z,37.64
2023-04-16T09:08:06.258Z,37.64
2023-04-16T09:09:06.295Z,37.61
2023-04-16T09:10:06.339Z,37.62
2023-04-16T09:11:06.367Z,37.60
2023-04-16T09:12:06.378Z,37.60
2023-04-16T09:13:06.414Z,37.59
2023-04-16T09:14:06.448Z,37.56
2023-04-16T09:15:06.479Z,37.58
2023-04-16T09:16:06.590Z,37.55
2023-04-16T09:17:06.573Z,37.56
2023-04-16T09:18:06.621Z,37.57
2023-04-16T09:19:06.660Z,37.55
2023-04-16T09:20:06.698Z,37.55
2023-04-16T09:21:06.729Z,37.55
2023-04-16T09:22:06.779Z,37.57
2023-04-16T09:23:06.839Z,37.54
2023-04-16T09:24:06.890Z,37.53
2023-04-16T09:25:06.927Z,37.53
2023-04-16T09:26:06.960Z,37.53
2023-04-16T09:27:06.991Z,37.53
2023-04-16T09:28:07.020Z,37.54
2023-04-16T09:29:07.115Z,37.51
2023-04-16T09:30:07.113Z,37.54
2023-04-16T09:31:07.142Z,37.51
2023-04-16T09:32:07.294Z,37.50
2023-04-16T09:33:07.238Z,37.51
2023-04-16T09:34:07.295Z,37.49
2023-04-16T09:35:07.304Z,37.48
2023-04-16T09:36:07.345Z,37.48
2023-04-16T09:37:07.396Z,37.49
2023-04-16T09:38:07.446Z,37.47
2023-04-16T09:39:07.560Z,37.49
2023-04-16T09:40:07.483Z,37.48
2023-04-16T09:41:07.521Z,37.48
2023-04-16T09:42:07.550Z,37.46
2023-04-16T09:43:07.566Z,37.47
2023-04-16T09:44:07.632Z,37.46
2023-04-16T09:45:07.651Z,37.45
2023-04-16T09:46:08.436Z,37.47
2023-04-16T09:47:07.741Z,37.46
2023-04-16T09:48:07.806Z,37.47
2023-04-16T09:49:08.700Z,37.47
2023-04-16T09:50:07.835Z,37.46
2023-04-16T09:51:07.839Z,37.46
2023-04-16T09:52:07.868Z,37.46
2023-04-16T09:53:07.905Z,37.47
2023-04-16T09:54:07.969Z,37.46
2023-04-16T09:55:08.030Z,37.46
2023-04-16T09:56:08.067Z,37.46
2023-04-16T09:57:08.103Z,37.45
2023-04-16T09:58:08.156Z,37.47
2023-04-16T09:59:08.324Z,37.46
2023-04-16T10:00:08.227Z,37.44
2023-04-16T10:01:08.306Z,37.46
2023-04-16T10:02:15.522Z,37.47
2023-04-16T10:03:09.330Z,37.48
2023-04-16T10:04:08.345Z,37.48
2023-04-16T10:05:08.197Z,37.49
2023-04-16T10:06:08.163Z,37.48
2023-04-16T10:07:08.142Z,37.45
2023-04-16T10:08:08.121Z,37.48
2023-04-16T10:09:08.153Z,37.46
2023-04-16T10:10:08.071Z,37.45
2023-04-16T10:11:08.114Z,37.47
2023-04-16T10:12:08.139Z,37.46
2023-04-16T10:13:08.185Z,37.46
2023-04-16T10:14:08.224Z,37.45
2023-04-16T10:15:08.265Z,37.46
2023-04-16T10:16:08.305Z,37.46
2023-04-16T10:17:08.387Z,37.44
2023-04-16T10:18:08.414Z,37.44
2023-04-16T10:19:08.550Z,37.45
2023-04-16T10:20:08.446Z,37.42
2023-04-16T10:21:08.472Z,37.45
2023-04-16T10:22:08.509Z,37.43
2023-04-16T10:23:08.546Z,37.44
2023-04-16T10:24:08.589Z,37.44
2023-04-16T10:25:08.616Z,37.42
2023-04-16T10:26:08.673Z,37.43
2023-04-16T10:27:08.694Z,37.43
2023-04-16T10:28:08.750Z,37.43
2023-04-16T10:29:09.106Z,37.43
2023-04-16T10:30:08.813Z,37.41
2023-04-16T10:31:08.932Z,37.42
2023-04-16T10:32:08.892Z,37.40
2023-04-16T10:33:08.956Z,37.40
2023-04-16T10:34:08.965Z,37.40
2023-04-16T10:35:08.995Z,37.44
2023-04-16T10:36:09.046Z,37.40
2023-04-16T10:37:09.073Z,37.42
2023-04-16T10:38:09.108Z,37.39
2023-04-16T10:39:09.297Z,37.40
2023-04-16T10:40:09.178Z,37.39
2023-04-16T10:41:09.217Z,37.40
2023-04-16T10:42:09.288Z,37.37
2023-04-16T10:43:09.295Z,37.35
2023-04-16T10:44:09.354Z,37.38
2023-04-16T10:45:09.382Z,37.37
2023-04-16T10:46:09.463Z,37.39
2023-04-16T10:47:09.466Z,37.36
2023-04-16T10:48:09.495Z,37.35
2023-04-16T10:49:09.861Z,37.36
2023-04-16T10:50:09.565Z,37.36
2023-04-16T10:51:09.613Z,37.33
2023-04-16T10:52:09.653Z,37.35
2023-04-16T10:53:09.690Z,37.34
2023-04-16T10:54:09.745Z,37.34
2023-04-16T10:55:09.777Z,37.32
2023-04-16T10:56:09.834Z,37.33
2023-04-16T10:57:09.878Z,37.33
2023-04-16T10:58:09.906Z,37.34
2023-04-16T10:59:10.113Z,37.31
2023-04-16T11:00:09.984Z,37.28
2023-04-16T11:01:10.036Z,37.28
2023-04-16T11:02:10.272Z,37.27
2023-04-16T11:03:10.191Z,37.27
2023-04-16T11:04:10.258Z,37.29
2023-04-16T11:05:10.190Z,37.29
2023-04-16T11:06:10.249Z,37.27
2023-04-16T11:07:10.288Z,37.27
2023-04-16T11:08:10.314Z,37.27
2023-04-16T11:09:10.609Z,37.27
2023-04-16T11:10:10.382Z,37.29
2023-04-16T11:11:10.423Z,37.26
2023-04-16T11:12:10.459Z,37.26
2023-04-16T11:13:10.496Z,37.24
2023-04-16T11:14:10.532Z,37.23
2023-04-16T11:15:10.597Z,37.25
2023-04-16T11:16:10.634Z,37.18
2023-04-16T11:17:10.610Z,37.19
2023-04-16T11:18:10.686Z,37.20
2023-04-16T11:19:10.827Z,37.21
2023-04-16T11:20:19.301Z,37.17
2023-04-16T11:21:11.680Z,37.14
2023-04-16T11:22:10.653Z,37.14
2023-04-16T11:23:10.644Z,37.14
2023-04-16T11:24:10.616Z,37.14
2023-04-16T11:25:10.589Z,37.11
2023-04-16T11:26:10.537Z,37.10
2023-04-16T11:27:10.511Z,37.07
2023-04-16T11:28:10.506Z,37.06
2023-04-16T11:29:10.855Z,37.10
2023-04-16T11:30:10.440Z,37.09
2023-04-16T11:31:10.440Z,37.08
2023-04-16T11:32:10.429Z,37.06
2023-04-16T11:33:10.450Z,37.06
2023-04-16T11:34:10.471Z,37.05
2023-04-16T11:35:10.481Z,37.04
2023-04-16T11:36:11.361Z,37.03
2023-04-16T11:37:10.521Z,36.98
2023-04-16T11:38:10.545Z,37.01
2023-04-16T11:39:10.753Z,37.00
2023-04-16T11:40:10.582Z,37.00
2023-04-16T11:41:10.589Z,36.96
2023-04-16T11:42:10.635Z,37.02
2023-04-16T11:43:10.626Z,37.02
2023-04-16T11:44:10.653Z,37.01
2023-04-16T11:45:10.681Z,37.02
2023-04-16T11:46:26.396Z,37.03
2023-04-16T11:47:11.711Z,37.02
2023-04-16T11:48:11.270Z,37.02
2023-04-16T11:49:10.846Z,37.02
2023-04-16T11:50:10.559Z,37.02
2023-04-16T11:51:10.564Z,37.02
2023-04-16T11:52:10.493Z,37.02
2023-04-16T11:53:10.462Z,37.02
2023-04-16T11:54:12.098Z,37.03
2023-04-16T11:55:10.394Z,37.02
2023-04-16T11:56:10.358Z,37.00
2023-04-16T11:57:10.326Z,37.03
2023-04-16T11:58:10.349Z,37.01
2023-04-16T11:59:10.676Z,37.00
2023-04-16T12:00:10.718Z,37.02
2023-04-16T12:01:10.384Z,37.03
2023-04-16T12:02:10.460Z,37.03
2023-04-16T12:03:10.638Z,37.04
2023-04-16T12:04:10.670Z,37.05
2023-04-16T12:05:10.518Z,37.04
2023-04-16T12:06:10.462Z,37.05
2023-04-16T12:07:10.482Z,37.06
2023-04-16T12:08:10.507Z,37.04
2023-04-16T12:09:10.604Z,37.03
2023-04-16T12:10:10.528Z,37.06
2023-04-16T12:11:10.537Z,37.04
2023-04-16T12:12:10.552Z,37.04
2023-04-16T12:13:10.570Z,37.04
2023-04-16T12:14:10.584Z,37.05
2023-04-16T12:15:10.612Z,37.04
2023-04-16T12:16:10.621Z,37.05
2023-04-16T12:17:10.709Z,37.04
2023-04-16T12:18:10.696Z,37.06
2023-04-16T12:19:10.813Z,37.07
2023-04-16T12:20:10.706Z,37.07
2023-04-16T12:21:10.684Z,37.11
2023-04-16T12:22:10.714Z,37.06
2023-04-16T12:23:10.735Z,37.08
2023-04-16T12:24:10.737Z,37.08
2023-04-16T12:25:10.754Z,37.08
2023-04-16T12:26:11.023Z,37.12
2023-04-16T12:27:10.793Z,37.09
2023-04-16T12:28:10.813Z,37.10
2023-04-16T12:29:10.895Z,37.09
2023-04-16T12:30:10.891Z,37.12
2023-04-16T12:31:10.906Z,37.11
2023-04-16T12:32:10.881Z,37.09
2023-04-16T12:33:10.988Z,37.13
2023-04-16T12:34:10.906Z,37.10
2023-04-16T12:35:10.938Z,37.10
2023-04-16T12:36:10.953Z,37.11
2023-04-16T12:37:10.992Z,37.11
2023-04-16T12:38:10.982Z,37.08
2023-04-16T12:39:11.130Z,37.11
2023-04-16T12:40:11.173Z,37.09
2023-04-16T12:41:11.042Z,37.11
2023-04-16T12:42:11.058Z,37.12
2023-04-16T12:43:11.112Z,37.12
2023-04-16T12:44:11.082Z,37.11
2023-04-16T12:45:11.128Z,37.10
2023-04-16T12:46:11.195Z,37.12
2023-04-16T12:47:11.157Z,37.12
2023-04-16T12:48:11.181Z,37.14
2023-04-16T12:49:11.381Z,37.11
2023-04-16T12:50:11.254Z,37.12
2023-04-16T12:51:11.230Z,37.10
2023-04-16T12:52:11.238Z,37.10
2023-04-16T12:53:11.285Z,37.11